Time;durP1;ratioP1;P1;durP2;ratioP2;P2;SDS_P1;SDS_P2;PMS_P1;PMS_P2;Temp;Humidity;BMP_temperature;BMP_pressure;BME280_temperature;BME280_humidity;BME280_pressure;Samples;Min_cycle;Max_cycle;Signal;HPM_P1;HPM_P2
2021/12/25 00:02:04;;;;;;;44.42;23.85;;;;;;;2.20;63.05;94900.28;5016138;28;20680;-57
2021/12/25 00:04:32;;;;;;;43.30;23.90;;;;;;;2.41;62.40;94910.34;5014779;28;20201;-63
2021/12/25 00:06:59;;;;;;;38.15;22.00;;;;;;;2.56;62.19;94905.69;5015244;28;20924;-63
2021/12/25 00:09:26;;;;;;;40.00;20.83;;;;;;;2.29;63.70;94893.88;5014551;28;20209;-64
2021/12/25 00:11:53;;;;;;;38.83;20.98;;;;;;;2.62;62.32;94901.50;5016908;28;20193;-64
2021/12/25 00:14:22;;;;;;;35.47;20.63;;;;;;;2.78;62.09;94899.22;5017994;28;20677;-61
2021/12/25 00:16:49;;;;;;;33.28;18.92;;;;;;;2.76;62.02;94896.06;5019582;28;20194;-62
2021/12/25 00:19:16;;;;;;;35.05;18.95;;;;;;;2.91;61.54;94913.88;5017044;28;20206;-63
2021/12/25 00:21:43;;;;;;;33.60;18.80;;;;;;;2.98;61.69;94915.44;5018640;28;20189;-61
2021/12/25 00:24:10;;;;;;;31.63;18.25;;;;;;;3.13;61.15;94919.53;5018175;28;20739;-61
2021/12/25 00:29:35;;;;;;;30.85;17.58;;;;;;;3.19;60.62;94913.53;5019974;28;20205;-62
2021/12/25 00:34:38;;;;;;;31.25;17.40;;;;;;;2.98;61.71;94917.22;5022496;28;20201;-62
2021/12/25 00:37:05;;;;;;;29.25;17.55;;;;;;;3.12;61.46;94920.56;5023068;28;20695;-59
2021/12/25 00:39:32;;;;;;;28.35;16.83;;;;;;;3.14;60.97;94903.00;5024166;28;20209;-62
2021/12/25 00:42:19;;;;;;;28.88;17.27;;;;;;;3.24;60.95;94905.91;5023176;28;20225;-64
2021/12/25 00:44:46;;;;;;;26.40;15.75;;;;;;;2.94;61.80;94924.63;5022224;28;20335;-62
2021/12/25 00:47:13;;;;;;;27.63;15.35;;;;;;;2.95;62.08;94912.47;5022870;28;20196;-62
2021/12/25 00:49:40;;;;;;;29.25;15.85;;;;;;;2.96;62.09;94925.22;5023271;28;20197;-62
2021/12/25 00:52:08;;;;;;;22.92;13.95;;;;;;;2.97;62.57;94916.44;5021116;28;20197;-60
2021/12/25 00:54:36;;;;;;;22.13;13.32;;;;;;;3.02;62.70;94918.41;5021542;28;20739;-61
2021/12/25 00:57:03;;;;;;;21.98;13.60;;;;;;;3.15;62.26;94910.56;5024850;28;20200;-61
2021/12/25 00:59:30;;;;;;;21.95;12.82;;;;;;;3.18;62.19;94907.56;5021640;28;20288;-63
2021/12/25 01:01:59;;;;;;;22.02;13.25;;;;;;;3.17;62.38;94916.34;5021924;28;20221;-61
2021/12/25 01:04:26;;;;;;;23.45;12.30;;;;;;;3.16;62.58;94919.13;5022312;28;20217;-59
2021/12/25 01:06:54;;;;;;;22.83;11.70;;;;;;;3.16;62.44;94898.44;5023076;28;20289;-60
2021/12/25 01:09:21;;;;;;;22.65;13.73;;;;;;;3.36;61.81;94904.25;5022148;28;20193;-58
2021/12/25 01:11:50;;;;;;;26.27;14.00;;;;;;;3.47;61.49;94913.91;5027396;28;20213;-64
2021/12/25 01:27:55;;;;;;;24.08;12.63;;;;;;;3.45;61.62;94897.81;5024333;28;20275;-59
2021/12/25 01:47:52;;;;;;;21.02;12.75;;;;;;;3.12;62.16;94881.72;5028013;28;20229;-61
2021/12/25 01:50:23;;;;;;;22.45;13.23;;;;;;;3.12;62.35;94894.66;5027079;28;20286;-60
2021/12/25 01:52:51;;;;;;;20.35;12.50;;;;;;;3.02;62.86;94890.75;5026624;28;20237;-62
2021/12/25 01:55:27;;;;;;;19.77;11.93;;;;;;;3.03;62.77;94900.06;5024545;28;21019;-61
2021/12/25 01:57:56;;;;;;;20.20;12.55;;;;;;;3.04;62.57;94891.31;5022618;28;20589;-62
2021/12/25 02:00:34;;;;;;;19.67;12.38;;;;;;;3.04;62.91;94886.16;5013600;28;20205;-58
2021/12/25 02:03:04;;;;;;;18.65;12.30;;;;;;;2.85;63.67;94892.22;5026183;28;20877;-62
2021/12/25 02:05:32;;;;;;;19.60;12.32;;;;;;;2.83;63.56;94880.47;5028042;28;20640;-62
2021/12/25 02:08:20;;;;;;;22.73;12.68;;;;;;;2.76;63.76;94883.13;5028091;28;20698;-59
2021/12/25 02:10:47;;;;;;;21.77;12.20;;;;;;;2.92;63.18;94874.84;5027614;28;20264;-59
2021/12/25 02:13:15;;;;;;;22.38;12.10;;;;;;;2.86;63.63;94860.19;5026477;28;20232;-59
2021/12/25 02:15:45;;;;;;;17.63;10.82;;;;;;;2.94;63.57;94867.69;5026018;28;20290;-61
2021/12/25 02:18:24;;;;;;;18.35;11.40;;;;;;;2.99;63.24;94870.44;5027555;28;20756;-60
2021/12/25 02:21:22;;;;;;;19.77;12.18;;;;;;;3.04;63.29;94870.63;5026601;28;20704;-59
2021/12/25 02:23:49;;;;;;;21.30;11.88;;;;;;;3.13;62.73;94857.41;5025089;28;20201;-58
2021/12/25 02:26:21;;;;;;;19.67;11.57;;;;;;;3.15;63.10;94863.16;5026820;28;20259;-59
2021/12/25 02:28:49;;;;;;;19.88;11.40;;;;;;;3.23;62.97;94862.91;5025829;28;20208;-62
2021/12/25 02:31:17;;;;;;;18.38;11.55;;;;;;;3.23;62.49;94878.47;5024645;28;20227;-62
2021/12/25 02:33:45;;;;;;;18.50;11.80;;;;;;;3.33;62.45;94878.75;5026247;28;20200;-61
2021/12/25 02:36:14;;;;;;;17.42;11.63;;;;;;;3.35;62.33;94872.38;5027291;28;20223;-62
2021/12/25 02:38:43;;;;;;;19.80;12.57;;;;;;;3.27;62.47;94874.41;5025829;28;20205;-60
2021/12/25 02:41:10;;;;;;;23.27;15.68;;;;;;;2.94;63.99;94859.91;5020238;28;20226;-59
2021/12/25 02:43:39;;;;;;;22.55;14.30;;;;;;;3.12;63.45;94871.38;5025744;28;20205;-62
2021/12/25 02:46:07;;;;;;;20.88;13.30;;;;;;;3.29;63.01;94869.81;5019234;28;20197;-60
2021/12/25 02:48:38;;;;;;;20.73;12.77;;;;;;;3.02;63.71;94867.44;5026795;28;20201;-58
2021/12/25 02:51:06;;;;;;;21.15;11.80;;;;;;;2.76;65.29;94870.19;5025829;28;20211;-59
2021/12/25 02:53:34;;;;;;;18.67;11.00;;;;;;;2.99;64.22;94867.84;5026834;28;20229;-61
2021/12/25 02:56:02;;;;;;;18.77;12.02;;;;;;;2.94;64.42;94862.50;5026888;28;20719;-64
2021/12/25 02:58:32;;;;;;;21.50;12.38;;;;;;;3.08;63.81;94871.75;5009448;28;20201;-61
2021/12/25 03:01:07;;;;;;;17.23;11.43;;;;;;;3.15;63.67;94870.94;5010759;28;20205;-61
2021/12/25 03:03:35;;;;;;;17.92;11.23;;;;;;;2.99;64.21;94864.47;5022210;28;20212;-59
2021/12/25 03:06:04;;;;;;;17.40;11.15;;;;;;;3.21;63.83;94870.09;5027497;28;20194;-63
2021/12/25 03:08:31;;;;;;;20.08;11.32;;;;;;;3.19;63.61;94878.09;5028716;28;20575;-62
2021/12/25 03:11:03;;;;;;;21.42;12.75;;;;;;;3.04;64.21;94870.63;5027049;28;20620;-61
2021/12/25 03:15:57;;;;;;;18.92;11.32;;;;;;;3.13;63.86;94867.75;5026886;28;20288;-59
2021/12/25 03:18:33;;;;;;;19.25;11.82;;;;;;;3.13;64.25;94872.94;5026586;28;20263;-62
2021/12/25 03:21:03;;;;;;;18.70;11.18;;;;;;;3.31;63.57;94885.94;5028420;28;20640;-63
2021/12/25 03:23:32;;;;;;;18.23;12.20;;;;;;;3.30;63.39;94869.63;5027198;28;20205;-60
2021/12/25 03:26:00;;;;;;;19.67;12.88;;;;;;;3.32;63.33;94872.00;5029218;28;20596;-61
2021/12/25 03:28:32;;;;;;;21.88;13.48;;;;;;;3.24;63.09;94883.41;5026757;28;20201;-61
2021/12/25 03:31:03;;;;;;;23.70;13.93;;;;;;;3.09;64.22;94868.19;5026783;28;20577;-63
2021/12/25 03:33:32;;;;;;;21.08;14.05;;;;;;;3.29;63.49;94875.00;5021274;28;20695;-59
2021/12/25 03:36:01;;;;;;;23.92;14.48;;;;;;;3.16;63.52;94877.72;5026291;28;20746;-63
2021/12/25 03:38:29;;;;;;;22.45;14.70;;;;;;;3.29;63.24;94877.59;5026218;28;20748;-61
2021/12/25 03:40:57;;;;;;;26.00;14.60;;;;;;;2.71;65.77;94880.38;5021839;28;20258;-59
2021/12/25 03:43:24;;;;;;;29.85;18.92;;;;;;;2.75;65.40;94875.56;5028866;28;20193;-62
2021/12/25 03:45:51;;;;;;;22.55;14.88;;;;;;;2.81;65.45;94870.34;5026714;28;20194;-62
2021/12/25 03:59:11;;;;;;;20.08;13.05;;;;;;;3.03;64.50;94884.53;5023609;28;20658;-59
2021/12/25 04:04:18;;;;;;;22.65;13.38;;;;;;;2.70;65.29;94889.13;5025379;28;20694;-60
2021/12/25 04:09:47;;;;;;;19.08;12.07;;;;;;;2.53;66.37;94877.69;5017349;28;20225;-60
2021/12/25 04:12:16;;;;;;;19.33;12.18;;;;;;;2.88;65.51;94894.38;5027358;28;20199;-59
2021/12/25 04:14:47;;;;;;;23.10;13.88;;;;;;;3.23;64.75;94883.63;5024915;28;20917;-62
2021/12/25 04:17:15;;;;;;;17.70;12.55;;;;;;;3.22;64.40;94887.22;5025467;28;20689;-59
2021/12/25 04:19:42;;;;;;;18.63;11.93;;;;;;;3.26;64.15;94880.63;5026408;28;20205;-61
2021/12/25 04:22:16;;;;;;;22.98;11.68;;;;;;;3.42;63.83;94885.25;5026220;28;20232;-60
2021/12/25 04:24:45;;;;;;;21.33;12.02;;;;;;;3.41;63.69;94891.47;5027004;28;20636;-59
2021/12/25 04:27:15;;;;;;;20.45;12.02;;;;;;;3.27;63.88;94883.00;5026400;28;20687;-61
2021/12/25 04:30:17;;;;;;;17.88;11.60;;;;;;;3.45;63.46;94887.47;5028180;28;20611;-59
2021/12/25 04:33:16;;;;;;;24.35;18.52;;;;;;;3.24;63.91;94885.22;5010302;28;20207;-56
2021/12/25 04:49:58;;;;;;;16.95;11.13;;;;;;;3.57;62.91;94901.28;5021457;28;20213;-61
2021/12/25 05:03:59;;;;;;;17.70;12.10;;;;;;;3.55;63.16;94926.63;5014588;28;20657;-59
2021/12/25 05:06:31;;;;;;;21.50;12.73;;;;;;;3.49;63.08;94917.09;5028862;28;20223;-60
2021/12/25 05:08:58;;;;;;;24.90;13.07;;;;;;;3.57;63.15;94922.03;5028216;28;20297;-61
2021/12/25 05:11:25;;;;;;;19.80;12.50;;;;;;;3.39;63.23;94889.09;5030696;28;20204;-63
2021/12/25 05:13:53;;;;;;;18.90;12.02;;;;;;;3.40;63.72;94906.19;5026924;28;20216;-63
2021/12/25 05:16:29;;;;;;;20.65;11.13;;;;;;;3.54;63.23;94906.91;5026902;28;20217;-61
2021/12/25 05:18:56;;;;;;;17.95;10.43;;;;;;;3.49;63.46;94919.69;5027305;28;20201;-58
2021/12/25 05:21:24;;;;;;;22.15;11.93;;;;;;;3.53;63.10;94920.84;5026717;28;20665;-61
2021/12/25 05:23:51;;;;;;;17.17;11.38;;;;;;;3.37;63.58;94908.41;5028623;28;20201;-61
2021/12/25 05:26:20;;;;;;;16.98;10.82;;;;;;;3.60;63.61;94919.00;5029210;28;20240;-62
2021/12/25 05:28:57;;;;;;;16.38;10.75;;;;;;;3.66;63.07;94911.19;5028779;28;20197;-60
2021/12/25 05:31:31;;;;;;;17.48;11.23;;;;;;;3.60;63.15;94922.38;5028042;28;20641;-59
2021/12/25 05:34:17;;;;;;;17.70;10.00;;;;;;;3.70;63.46;94927.91;5025978;28;20593;-60
2021/12/25 05:36:52;;;;;;;18.50;10.88;;;;;;;3.67;63.53;94906.78;5026670;28;20236;-62
2021/12/25 05:39:38;;;;;;;17.67;11.38;;;;;;;3.75;63.34;94919.47;5028115;28;20208;-62
2021/12/25 05:42:05;;;;;;;19.17;11.30;;;;;;;3.78;62.80;94927.63;5028679;28;20229;-59
2021/12/25 05:44:32;;;;;;;17.70;10.75;;;;;;;3.90;62.92;94923.34;5024818;28;20197;-62
2021/12/25 05:47:02;;;;;;;18.10;11.27;;;;;;;3.93;62.63;94927.28;5030019;28;20205;-60
2021/12/25 05:49:32;;;;;;;19.55;10.98;;;;;;;3.90;62.56;94938.09;5024943;28;20602;-61
2021/12/25 05:52:22;;;;;;;16.45;10.75;;;;;;;3.93;62.36;94922.09;5025251;28;20243;-61
2021/12/25 05:55:07;;;;;;;17.77;10.88;;;;;;;3.68;63.26;94939.47;5027911;28;20216;-58
2021/12/25 05:57:42;;;;;;;17.20;10.95;;;;;;;4.00;62.88;94944.38;5029948;28;20642;-58
2021/12/25 06:00:31;;;;;;;17.45;11.20;;;;;;;4.02;62.13;94951.94;5029059;28;20603;-59
2021/12/25 06:02:59;;;;;;;15.13;10.48;;;;;;;3.98;62.48;94967.13;5028260;28;20196;-58
2021/12/25 06:05:32;;;;;;;19.30;11.82;;;;;;;3.90;62.92;94961.41;5026635;28;20201;-59
2021/12/25 06:07:59;;;;;;;16.95;10.80;;;;;;;4.08;62.50;94956.28;5028836;28;20205;-57
2021/12/25 06:10:27;;;;;;;19.67;10.88;;;;;;;3.95;62.65;94952.00;5030231;28;20687;-60
2021/12/25 06:12:58;;;;;;;16.35;10.07;;;;;;;4.12;62.62;94947.06;5027619;28;20209;-59
2021/12/25 06:15:28;;;;;;;17.95;10.90;;;;;;;4.12;62.20;94942.66;5027068;28;20213;-58
2021/12/25 06:18:09;;;;;;;25.00;11.77;;;;;;;4.24;62.25;94950.53;5028119;28;20229;-62
2021/12/25 06:20:42;;;;;;;19.42;11.07;;;;;;;4.09;62.18;94947.47;5028607;28;20228;-62
2021/12/25 06:23:09;;;;;;;16.48;9.32;;;;;;;4.07;62.73;94949.47;5029389;28;20837;-58
2021/12/25 06:25:54;;;;;;;16.15;10.73;;;;;;;4.16;62.22;94948.19;5029889;28;20212;-61
2021/12/25 06:28:26;;;;;;;19.10;11.02;;;;;;;4.17;61.82;94947.22;5027833;28;20189;-60
2021/12/25 06:31:13;;;;;;;15.75;10.52;;;;;;;4.19;61.78;94958.16;5027859;28;20209;-61
2021/12/25 06:33:54;;;;;;;25.55;10.65;;;;;;;4.32;61.79;94950.25;5025411;28;20296;-60
2021/12/25 06:36:34;;;;;;;16.33;9.90;;;;;;;4.30;61.74;94944.50;5026422;28;20221;-59
2021/12/25 06:39:11;;;;;;;17.38;10.48;;;;;;;4.42;61.69;94953.13;5024478;28;20212;-64
2021/12/25 06:41:46;;;;;;;15.60;10.43;;;;;;;4.41;61.99;94953.34;5025926;28;20213;-56
2021/12/25 06:44:20;;;;;;;15.88;10.48;;;;;;;4.38;61.60;94951.97;5028382;28;20259;-57
2021/12/25 06:46:48;;;;;;;15.93;10.77;;;;;;;4.46;61.72;94959.47;5027879;28;20653;-63
2021/12/25 06:49:16;;;;;;;19.98;11.52;;;;;;;4.40;61.36;94970.72;5026003;28;20205;-62
2021/12/25 06:52:02;;;;;;;17.20;11.02;;;;;;;4.41;61.82;94969.72;5028471;28;20774;-62
2021/12/25 06:54:48;;;;;;;17.50;11.40;;;;;;;4.38;61.54;94969.34;5029249;28;20223;-61
2021/12/25 06:57:43;;;;;;;16.45;11.05;;;;;;;4.41;61.50;94976.69;5024905;28;20283;-63
2021/12/25 07:00:11;;;;;;;15.18;10.50;;;;;;;4.42;61.47;94973.88;5021817;28;20205;-59
2021/12/25 07:02:38;;;;;;;15.15;10.45;;;;;;;4.33;61.30;94954.41;5025620;28;20375;-62
2021/12/25 07:05:24;;;;;;;19.35;11.60;;;;;;;4.42;61.31;94989.44;5028506;28;20255;-60
2021/12/25 07:08:25;;;;;;;17.48;11.32;;;;;;;4.41;61.83;94993.06;5026634;28;20201;-60
2021/12/25 07:11:10;;;;;;;20.08;11.88;;;;;;;4.44;61.46;94991.81;5027574;28;20678;-62
2021/12/25 07:13:52;;;;;;;21.23;12.40;;;;;;;4.17;62.82;94996.47;5023001;28;20783;-64
2021/12/25 07:16:39;;;;;;;19.35;11.80;;;;;;;4.53;61.87;94996.53;5027110;28;20223;-57
2021/12/25 07:19:21;;;;;;;20.83;12.60;;;;;;;4.36;63.27;95005.84;5026801;28;20193;-63
2021/12/25 07:22:07;;;;;;;18.25;12.43;;;;;;;4.60;62.23;94994.66;5025911;28;20224;-59
2021/12/25 07:24:37;;;;;;;34.38;20.70;;;;;;;4.45;62.54;94977.84;5025820;28;20251;-59
2021/12/25 07:27:23;;;;;;;27.30;17.45;;;;;;;4.46;62.90;94982.81;5026782;28;20223;-61
2021/12/25 07:29:57;;;;;;;26.77;16.30;;;;;;;4.57;62.02;94979.53;5025540;28;20201;-59
2021/12/25 07:32:24;;;;;;;29.13;17.73;;;;;;;4.69;62.04;94992.59;5027079;28;20205;-62
2021/12/25 07:34:51;;;;;;;31.30;19.75;;;;;;;4.27;63.56;94999.38;5028230;28;20551;-60
2021/12/25 07:37:18;;;;;;;32.10;17.38;;;;;;;4.43;62.77;95004.03;5025275;28;20228;-63
2021/12/25 07:39:45;;;;;;;25.13;14.90;;;;;;;4.46;62.69;95003.59;5026550;28;20204;-60
2021/12/25 07:42:13;;;;;;;26.90;15.55;;;;;;;4.66;63.02;95005.97;5027230;28;20300;-64
2021/12/25 07:45:08;;;;;;;28.23;16.90;;;;;;;4.58;62.74;95004.44;5025395;28;20212;-59
2021/12/25 07:47:39;;;;;;;74.05;45.88;;;;;;;4.76;62.41;95017.44;5027919;28;20220;-61
2021/12/25 07:50:08;;;;;;;93.13;66.30;;;;;;;4.87;61.83;95016.72;5027848;28;20632;-62
2021/12/25 07:52:35;;;;;;;26.73;16.95;;;;;;;4.86;61.84;95009.94;5027407;28;20233;-57
2021/12/25 07:55:03;;;;;;;26.17;16.17;;;;;;;4.98;61.70;95015.97;5024965;28;20623;-60
2021/12/25 07:57:29;;;;;;;21.85;12.88;;;;;;;5.20;60.85;95007.75;5028117;28;20217;-61
2021/12/25 07:59:56;;;;;;;21.13;13.57;;;;;;;5.40;60.35;95003.09;5027557;28;20205;-60
2021/12/25 08:02:23;;;;;;;23.52;13.18;;;;;;;5.42;60.20;95007.03;5026893;28;20204;-61
2021/12/25 08:04:51;;;;;;;20.38;13.88;;;;;;;5.57;59.65;95004.84;5028342;28;20228;-61
2021/12/25 08:07:18;;;;;;;22.73;15.52;;;;;;;5.60;60.04;95014.00;5027837;28;20668;-64
2021/12/25 08:09:45;;;;;;;27.42;18.02;;;;;;;5.85;60.00;95017.25;5027709;28;20673;-63
2021/12/25 08:12:12;;;;;;;30.25;18.63;;;;;;;5.92;59.68;95020.56;5012644;28;20291;-62
2021/12/25 08:14:39;;;;;;;29.67;18.33;;;;;;;6.17;58.98;95013.34;5027743;28;20193;-62
2021/12/25 08:17:06;;;;;;;33.60;19.20;;;;;;;6.43;59.05;95020.72;5027185;28;20267;-65
2021/12/25 08:19:52;;;;;;;32.03;19.03;;;;;;;6.79;57.65;95012.66;5024824;28;20454;-63
2021/12/25 08:22:38;;;;;;;29.43;18.97;;;;;;;7.25;56.43;95010.97;5027068;28;20439;-64
2021/12/25 08:25:24;;;;;;;30.40;18.67;;;;;;;7.73;55.09;95006.13;5027162;28;20938;-60
2021/12/25 08:28:29;;;;;;;30.10;18.10;;;;;;;8.03;56.29;94998.81;5025797;28;20456;-60
2021/12/25 08:31:15;;;;;;;26.33;18.53;;;;;;;8.25;55.75;94998.94;5024674;28;20822;-61
2021/12/25 08:34:03;;;;;;;78.13;52.53;;;;;;;8.50;54.72;94997.50;5025502;28;20446;-63
2021/12/25 08:36:53;;;;;;;116.33;77.97;;;;;;;8.46;53.17;95001.59;5029208;28;20477;-63
2021/12/25 08:39:20;;;;;;;49.87;31.17;;;;;;;8.37;52.98;94982.16;5030802;28;20967;-60
2021/12/25 08:41:47;;;;;;;18.90;12.30;;;;;;;8.48;51.92;94976.06;5027586;28;20437;-60
2021/12/25 08:44:38;;;;;;;20.63;12.70;;;;;;;9.39;50.35;94982.41;5030613;28;20842;-62
2021/12/25 08:47:04;;;;;;;60.37;43.27;;;;;;;10.02;48.21;94985.09;5028723;28;20521;-60
2021/12/25 08:49:33;;;;;;;176.77;124.27;;;;;;;10.32;47.65;94985.38;5030434;28;20448;-61
2021/12/25 08:52:05;;;;;;;41.17;25.47;;;;;;;10.02;47.46;94982.47;5031221;28;20440;-64
2021/12/25 08:54:33;;;;;;;16.43;11.47;;;;;;;9.00;48.66;94972.03;5029992;28;20503;-60
2021/12/25 08:57:01;;;;;;;15.07;10.37;;;;;;;8.85;49.34;94974.44;5031433;28;20475;-60
2021/12/25 08:59:28;;;;;;;18.53;10.20;;;;;;;8.36;50.94;94964.91;5030826;28;20448;-61
2021/12/25 09:01:57;;;;;;;16.83;11.00;;;;;;;8.12;51.48;94963.47;5031132;28;20913;-61
2021/12/25 09:04:25;;;;;;;21.83;11.40;;;;;;;8.81;51.26;94968.13;5028914;28;20501;-65
2021/12/25 09:06:52;;;;;;;13.97;10.37;;;;;;;9.33;52.00;94970.28;5031485;28;20742;-60
2021/12/25 09:09:20;;;;;;;76.03;50.63;;;;;;;9.33;50.08;94957.22;5029405;28;20458;-59
2021/12/25 09:11:47;;;;;;;77.60;52.70;;;;;;;9.10;48.61;94956.44;5027629;28;20446;-60
2021/12/25 09:14:14;;;;;;;63.37;42.13;;;;;;;9.81;49.03;94947.50;5027881;28;20447;-61
2021/12/25 09:16:41;;;;;;;28.10;19.53;;;;;;;10.33;46.76;94944.28;5031067;28;20439;-61
2021/12/25 09:19:08;;;;;;;13.83;9.13;;;;;;;10.48;46.09;94942.53;5031178;28;21254;-60
2021/12/25 09:21:35;;;;;;;16.87;9.30;;;;;;;10.98;46.53;94928.88;5030525;28;20440;-59
2021/12/25 09:24:02;;;;;;;17.20;8.93;;;;;;;10.96;45.88;94926.53;5030055;28;20550;-59
2021/12/25 09:26:30;;;;;;;53.50;32.57;;;;;;;10.89;45.76;94925.94;5029354;28;20450;-64
2021/12/25 09:28:56;;;;;;;16.87;9.60;;;;;;;10.69;46.71;94931.09;5028297;28;20820;-61
2021/12/25 09:31:24;;;;;;;16.60;8.60;;;;;;;10.46;47.13;94920.22;5027338;28;20450;-60
2021/12/25 09:33:52;;;;;;;50.90;30.27;;;;;;;10.10;47.31;94934.94;5029697;28;20462;-59
2021/12/25 09:36:22;;;;;;;14.10;9.10;;;;;;;9.81;47.81;94923.16;5030379;28;20560;-61
2021/12/25 09:38:50;;;;;;;14.33;9.17;;;;;;;9.62;48.18;94911.47;5029942;28;20483;-60
2021/12/25 09:41:18;;;;;;;14.47;10.03;;;;;;;9.65;48.82;94942.38;5029957;28;20946;-61
2021/12/25 09:43:47;;;;;;;17.70;10.20;;;;;;;9.71;48.32;94912.59;5031051;28;20443;-61
2021/12/25 09:46:20;;;;;;;16.60;11.20;;;;;;;9.55;48.74;94927.38;5030497;28;20447;-61
2021/12/25 09:48:50;;;;;;;21.20;14.23;;;;;;;9.43;50.27;94923.34;5028646;28;20439;-64
2021/12/25 09:51:18;;;;;;;47.23;32.77;;;;;;;9.68;50.34;94915.72;5029703;28;20448;-62
2021/12/25 09:54:01;;;;;;;32.30;20.47;;;;;;;9.67;49.69;94908.91;5027987;28;20903;-63
2021/12/25 09:56:30;;;;;;;40.87;25.10;;;;;;;9.86;49.33;94907.50;5027101;28;20440;-63
2021/12/25 09:58:57;;;;;;;132.40;90.50;;;;;;;9.95;51.73;94903.38;5029568;28;20502;-60
2021/12/25 10:01:43;;;;;;;43.60;28.03;;;;;;;10.18;49.52;94900.44;5028860;28;20439;-62
2021/12/25 10:04:48;;;;;;;62.40;40.57;;;;;;;10.28;49.73;94889.22;5029993;28;20447;-61
2021/12/25 10:07:17;;;;;;;34.37;22.20;;;;;;;10.69;48.72;94891.03;5029557;28;20440;-62
2021/12/25 10:09:56;;;;;;;39.43;24.97;;;;;;;10.91;47.81;94889.00;5029505;28;20447;-61
2021/12/25 10:12:39;;;;;;;38.63;24.13;;;;;;;10.97;47.11;94878.28;5027585;28;20509;-61
2021/12/25 10:15:12;;;;;;;50.23;35.60;;;;;;;11.19;46.75;94880.69;5029196;28;20530;-60
2021/12/25 10:17:47;;;;;;;34.47;22.70;;;;;;;10.90;46.19;94871.69;5029058;28;20480;-62
2021/12/25 10:20:22;;;;;;;84.10;47.73;;;;;;;11.37;46.86;94876.81;5029839;28;20475;-60
2021/12/25 10:23:00;;;;;;;35.47;19.50;;;;;;;11.68;45.00;94883.66;5029203;28;20987;-62
2021/12/25 10:25:35;;;;;;;69.97;44.17;;;;;;;11.60;45.21;94865.81;5028100;28;21534;-61
2021/12/25 10:28:08;;;;;;;46.70;29.10;;;;;;;11.76;44.76;94870.81;5029089;28;21032;-61
2021/12/25 10:30:48;;;;;;;36.87;21.47;;;;;;;11.89;44.80;94865.06;5030194;28;20531;-61
2021/12/25 10:33:26;;;;;;;62.70;46.33;;;;;;;11.97;44.03;94850.59;5027660;28;20440;-61
2021/12/25 10:35:56;;;;;;;31.80;20.57;;;;;;;12.07;44.63;94855.84;5028901;28;20526;-63
2021/12/25 10:38:24;;;;;;;40.73;30.07;;;;;;;12.04;44.54;94861.63;5025862;28;20486;-60
2021/12/25 10:41:09;;;;;;;37.20;24.07;;;;;;;12.18;44.04;94852.13;5027879;28;20456;-61
2021/12/25 10:43:42;;;;;;;27.20;19.37;;;;;;;12.32;44.99;94847.13;5027097;28;20446;-61
2021/12/25 10:46:10;;;;;;;58.77;40.10;;;;;;;12.14;44.17;94853.72;5028990;28;20951;-60
2021/12/25 10:48:37;;;;;;;31.13;22.67;;;;;;;12.34;44.28;94824.78;5026611;28;20877;-61
2021/12/25 10:51:04;;;;;;;31.83;21.23;;;;;;;12.33;43.80;94823.22;5027465;28;20444;-60
2021/12/25 10:53:41;;;;;;;34.77;22.60;;;;;;;12.13;44.23;94844.28;5028127;28;20487;-60
2021/12/25 10:56:14;;;;;;;61.20;45.23;;;;;;;11.73;47.57;94839.06;5028892;28;21001;-63
2021/12/25 10:58:43;;;;;;;65.17;45.70;;;;;;;11.76;46.11;94833.28;5027460;28;20475;-61
2021/12/25 11:01:12;;;;;;;37.50;25.73;;;;;;;11.85;45.30;94831.69;5028951;28;20455;-61
2021/12/25 11:03:43;;;;;;;38.00;23.83;;;;;;;11.87;45.55;94833.03;5026491;28;21107;-61
2021/12/25 11:06:14;;;;;;;36.17;23.27;;;;;;;11.71;45.86;94833.28;5028948;28;20509;-61
2021/12/25 11:08:41;;;;;;;39.60;23.10;;;;;;;11.77;45.71;94832.25;5025095;28;20452;-61
2021/12/25 11:11:14;;;;;;;62.70;42.80;;;;;;;11.48;45.13;94823.31;5026911;28;20447;-69
2021/12/25 11:13:55;;;;;;;29.90;18.43;;;;;;;11.47;45.99;94813.84;5022151;28;20447;-74
2021/12/25 11:16:28;;;;;;;36.50;21.70;;;;;;;11.56;45.65;94807.81;5022051;28;20455;-72
2021/12/25 11:19:09;;;;;;;26.00;17.23;;;;;;;11.70;46.10;94797.59;5027254;28;21010;-74
2021/12/25 11:21:52;;;;;;;24.70;16.27;;;;;;;11.62;45.89;94800.72;5028489;28;20932;-74
2021/12/25 11:24:27;;;;;;;36.80;22.50;;;;;;;11.80;45.34;94797.59;5022601;28;20448;-74
2021/12/25 11:26:58;;;;;;;24.90;16.13;;;;;;;11.55;45.15;94761.63;5015669;28;20440;-73
2021/12/25 11:29:29;;;;;;;16.00;12.00;;;;;;;11.89;44.98;94782.88;5010759;28;20820;-72
2021/12/25 11:31:58;;;;;;;18.40;12.93;;;;;;;11.96;44.98;94783.38;5010685;28;20452;-73
2021/12/25 11:34:28;;;;;;;44.00;26.27;;;;;;;11.86;44.89;94770.28;5026554;28;20457;-64
2021/12/25 11:36:58;;;;;;;30.17;19.17;;;;;;;12.00;44.45;94787.84;5030793;28;20444;-67
2021/12/25 11:39:27;;;;;;;40.83;25.93;;;;;;;12.16;44.95;94780.69;5032309;28;21339;-72
2021/12/25 11:42:05;;;;;;;26.63;15.87;;;;;;;12.43;44.46;94772.44;5027260;28;20448;-65
2021/12/25 11:44:45;;;;;;;15.67;8.80;;;;;;;12.69;43.07;94779.97;5018361;28;20493;-67
2021/12/25 11:47:31;;;;;;;17.60;8.73;;;;;;;13.19;42.27;94758.63;5026930;28;20447;-69
2021/12/25 11:50:03;;;;;;;14.13;7.57;;;;;;;13.98;41.38;94750.28;5010603;28;20492;-69
2021/12/25 11:52:38;;;;;;;10.93;7.67;;;;;;;14.54;40.45;94741.78;5013373;28;20492;-71
2021/12/25 12:00:49;;;;;;;17.93;10.00;;;;;;;16.98;34.88;94737.81;5026023;28;20538;-70
2021/12/25 12:03:41;;;;;;;12.10;7.43;;;;;;;18.08;33.11;94722.97;5024699;28;20936;-69
2021/12/25 12:06:08;;;;;;;10.27;7.87;;;;;;;19.17;32.05;94726.22;5020879;28;20994;-68
2021/12/25 12:08:54;;;;;;;9.00;6.83;;;;;;;18.45;32.25;94738.41;5018375;28;20451;-70
2021/12/25 12:11:47;;;;;;;13.33;7.20;;;;;;;17.20;33.96;94740.50;5023142;28;21096;-69
2021/12/25 12:14:16;;;;;;;12.03;6.90;;;;;;;15.82;37.49;94727.97;5020644;28;20439;-66
2021/12/25 12:17:01;;;;;;;11.37;6.80;;;;;;;14.65;38.65;94733.44;5016192;28;20448;-72
2021/12/25 12:19:44;;;;;;;10.83;7.63;;;;;;;14.21;39.22;94746.09;5012253;28;20503;-73
2021/12/25 12:22:29;;;;;;;9.77;7.07;;;;;;;13.73;39.76;94747.13;5016324;28;20451;-65
2021/12/25 12:27:33;;;;;;;14.60;7.60;;;;;;;13.46;41.63;94754.75;5020635;28;20827;-69
2021/12/25 12:30:00;;;;;;;14.80;7.27;;;;;;;13.36;41.26;94754.84;5023857;28;20440;-67
2021/12/25 12:32:35;;;;;;;12.63;7.90;;;;;;;13.20;41.11;94754.16;5023928;28;20892;-71
2021/12/25 12:35:24;;;;;;;136.63;95.47;;;;;;;13.09;41.28;94757.91;5020648;28;20539;-70
2021/12/25 12:37:51;;;;;;;137.77;98.37;;;;;;;12.85;41.61;94749.88;5018844;28;20483;-69
2021/12/25 12:40:24;;;;;;;15.63;8.47;;;;;;;12.60;41.75;94765.81;5022164;28;20452;-69
2021/12/25 12:42:57;;;;;;;13.40;8.27;;;;;;;12.63;42.49;94765.25;5021291;28;20577;-68
2021/12/25 12:45:31;;;;;;;14.87;8.67;;;;;;;12.70;42.12;94765.75;5023835;28;20970;-72
2021/12/25 12:48:10;;;;;;;17.63;10.27;;;;;;;12.57;42.39;94774.22;5023827;28;20578;-72
2021/12/25 12:50:41;;;;;;;18.47;9.80;;;;;;;12.81;42.20;94766.50;5023607;28;20450;-75
2021/12/25 12:53:09;;;;;;;55.63;41.33;;;;;;;12.71;42.18;94761.28;5023065;28;21013;-69
2021/12/25 12:55:42;;;;;;;27.63;19.00;;;;;;;12.47;42.50;94761.13;5028338;28;20531;-72
2021/12/25 12:58:15;;;;;;;18.33;13.63;;;;;;;12.44;42.86;94761.69;5028376;28;20832;-73
2021/12/25 13:00:49;;;;;;;14.53;8.30;;;;;;;12.12;43.02;94771.78;5027466;28;20442;-67
2021/12/25 13:03:17;;;;;;;15.50;8.63;;;;;;;11.82;43.36;94756.91;5028342;28;20446;-64
2021/12/25 13:05:53;;;;;;;14.77;7.83;;;;;;;12.01;44.16;94762.34;5027597;28;20440;-64
2021/12/25 13:08:21;;;;;;;17.33;9.70;;;;;;;11.99;43.31;94764.44;5024415;28;20447;-71
2021/12/25 13:10:52;;;;;;;13.47;7.93;;;;;;;12.38;43.32;94765.38;5028182;28;20444;-71
2021/12/25 13:13:22;;;;;;;15.07;7.83;;;;;;;12.33;42.95;94768.03;5026328;28;20444;-69
2021/12/25 13:15:55;;;;;;;25.90;17.10;;;;;;;12.39;43.05;94768.81;5028105;28;20444;-65
2021/12/25 13:18:31;;;;;;;15.47;9.23;;;;;;;12.39;42.90;94768.81;5026294;28;20479;-74
2021/12/25 13:21:00;;;;;;;20.10;12.40;;;;;;;12.51;42.71;94775.31;5027342;28;20917;-73